createdAt,value
2023-02-11T00:00:29.341Z,83.57
2023-02-11T00:01:29.348Z,83.51
2023-02-11T00:02:29.604Z,83.52
2023-02-11T00:03:29.893Z,83.57
2023-02-11T00:04:29.620Z,83.59
2023-02-11T00:05:29.083Z,83.61
2023-02-11T00:06:29.095Z,83.62
2023-02-11T00:07:29.065Z,83.61
2023-02-11T00:08:29.156Z,83.60
2023-02-11T00:09:31.734Z,83.63
2023-02-11T00:10:29.038Z,83.67
2023-02-11T00:11:29.016Z,83.72
2023-02-11T00:12:29.304Z,83.76
2023-02-11T00:13:29.327Z,83.78
2023-02-11T00:14:29.348Z,83.79
2023-02-11T00:15:29.392Z,83.81
2023-02-11T00:16:29.382Z,83.87
2023-02-11T00:17:29.368Z,83.87
2023-02-11T00:18:29.362Z,83.87
2023-02-11T00:19:29.551Z,83.89
2023-02-11T00:20:29.578Z,83.94
2023-02-11T00:21:29.046Z,83.99
2023-02-11T00:22:28.959Z,84.03
2023-02-11T00:23:29.391Z,84.07
2023-02-11T00:24:28.885Z,84.08
2023-02-11T00:25:28.873Z,84.09
2023-02-11T00:26:29.796Z,84.15
2023-02-11T00:27:29.140Z,84.17
2023-02-11T00:28:29.703Z,84.16
2023-02-11T00:29:29.354Z,84.19
2023-02-11T00:30:29.289Z,84.24
2023-02-11T00:31:30.012Z,84.25
2023-02-11T00:32:29.497Z,84.32
2023-02-11T00:33:29.102Z,84.34
2023-02-11T00:34:29.602Z,84.36
2023-02-11T00:35:29.983Z,84.26
2023-02-11T00:36:28.802Z,84.26
2023-02-11T00:37:29.365Z,84.26
2023-02-11T00:38:29.360Z,84.30
2023-02-11T00:39:28.686Z,84.30
2023-02-11T00:40:28.714Z,84.34
2023-02-11T00:41:28.679Z,84.35
2023-02-11T00:42:28.668Z,84.35
2023-02-11T00:43:28.773Z,84.33
2023-02-11T00:44:28.801Z,84.33
2023-02-11T00:45:28.822Z,84.33
2023-02-11T00:46:28.946Z,84.35
2023-02-11T00:47:28.864Z,84.35
2023-02-11T00:48:28.609Z,84.35
2023-02-11T00:49:28.622Z,84.33
2023-02-11T00:50:28.651Z,84.33
2023-02-11T00:51:28.708Z,84.35
2023-02-11T00:52:28.782Z,84.33
2023-02-11T00:53:28.765Z,84.35
2023-02-11T00:54:30.036Z,84.35
2023-02-11T00:55:28.616Z,84.38
2023-02-11T00:56:28.863Z,84.42
2023-02-11T00:57:28.484Z,84.48
2023-02-11T00:58:28.936Z,84.55
2023-02-11T00:59:28.456Z,84.59
2023-02-11T01:00:29.002Z,84.62
2023-02-11T01:01:28.697Z,84.60
2023-02-11T01:02:29.074Z,84.54
2023-02-11T01:03:29.117Z,84.41
2023-02-11T01:04:28.435Z,84.29
2023-02-11T01:05:28.506Z,84.20
2023-02-11T01:06:28.426Z,84.18
2023-02-11T01:07:28.376Z,84.17
2023-02-11T01:08:28.383Z,84.15
2023-02-11T01:09:28.375Z,84.12
2023-02-11T01:10:28.379Z,84.08
2023-02-11T01:11:28.377Z,84.10
2023-02-11T01:12:28.396Z,84.12
2023-02-11T01:13:28.420Z,84.13
2023-02-11T01:14:28.390Z,84.15
2023-02-11T01:15:28.381Z,84.22
2023-02-11T01:16:28.396Z,84.23
2023-02-11T01:17:28.302Z,84.28
2023-02-11T01:18:28.309Z,84.35
2023-02-11T01:19:28.267Z,84.40
2023-02-11T01:20:28.414Z,84.42
2023-02-11T01:21:28.223Z,84.42
2023-02-11T01:22:28.243Z,84.39
2023-02-11T01:23:28.205Z,84.37
2023-02-11T01:24:28.417Z,84.36
2023-02-11T01:25:28.202Z,84.35
2023-02-11T01:26:28.401Z,84.39
2023-02-11T01:27:28.162Z,84.43
2023-02-11T01:28:28.454Z,84.45
2023-02-11T01:29:28.403Z,84.50
2023-02-11T01:30:28.137Z,84.48
2023-02-11T01:31:28.215Z,84.48
2023-02-11T01:32:28.140Z,84.46
2023-02-11T01:33:28.172Z,84.43
2023-02-11T01:34:28.078Z,84.43
2023-02-11T01:35:28.076Z,84.44
2023-02-11T01:36:28.122Z,84.42
2023-02-11T01:37:28.053Z,84.42
2023-02-11T01:38:28.169Z,84.35
2023-02-11T01:39:28.180Z,84.33
2023-02-11T01:40:28.215Z,84.32
2023-02-11T01:41:28.226Z,84.33
2023-02-11T01:42:28.166Z,84.34
2023-02-11T01:43:28.105Z,84.40
2023-02-11T01:44:28.087Z,84.49
2023-02-11T01:45:27.952Z,84.53
2023-02-11T01:46:27.980Z,84.56
2023-02-11T01:47:28.396Z,84.56
2023-02-11T01:48:28.414Z,84.59
2023-02-11T01:49:28.066Z,84.61
2023-02-11T01:50:28.285Z,84.60
2023-02-11T01:51:27.986Z,84.62
2023-02-11T01:52:28.420Z,84.65
2023-02-11T01:53:27.882Z,84.70
2023-02-11T01:54:27.864Z,84.73
2023-02-11T01:55:27.851Z,84.71
2023-02-11T01:56:27.995Z,84.70
2023-02-11T01:57:28.416Z,84.69
2023-02-11T01:58:27.821Z,84.69
2023-02-11T01:59:27.835Z,84.69
2023-02-11T02:00:28.425Z,84.69
2023-02-11T02:01:27.825Z,84.69
2023-02-11T02:02:27.770Z,84.65
2023-02-11T02:03:27.771Z,84.65
2023-02-11T02:04:27.797Z,84.62
2023-02-11T02:05:28.394Z,84.64
2023-02-11T02:06:28.395Z,84.62
2023-02-11T02:07:27.710Z,84.63
2023-02-11T02:08:28.073Z,84.64
2023-02-11T02:09:27.671Z,84.66
2023-02-11T02:10:27.688Z,84.70
2023-02-11T02:11:27.761Z,84.74
2023-02-11T02:12:28.450Z,84.75
2023-02-11T02:13:28.431Z,84.76
2023-02-11T02:14:27.624Z,84.82
2023-02-11T02:15:27.700Z,84.84
2023-02-11T02:16:27.768Z,84.85
2023-02-11T02:17:27.584Z,84.86
2023-02-11T02:18:27.628Z,84.90
2023-02-11T02:19:27.765Z,84.91
2023-02-11T02:20:27.812Z,84.97
2023-02-11T02:21:27.843Z,85.06
2023-02-11T02:22:27.535Z,85.07
2023-02-11T02:23:27.758Z,85.06
2023-02-11T02:24:27.981Z,85.12
2023-02-11T02:25:27.672Z,85.10
2023-02-11T02:26:27.693Z,85.08
2023-02-11T02:27:28.060Z,85.08
2023-02-11T02:28:27.504Z,85.08
2023-02-11T02:29:27.456Z,85.06
2023-02-11T02:30:27.519Z,85.08
2023-02-11T02:31:27.504Z,85.05
2023-02-11T02:32:27.424Z,85.06
2023-02-11T02:33:27.390Z,85.03
2023-02-11T02:34:27.407Z,85.05
2023-02-11T02:35:27.453Z,85.02
2023-02-11T02:36:27.442Z,85.06
2023-02-11T02:37:27.440Z,85.06
2023-02-11T02:38:27.459Z,85.07
2023-02-11T02:39:27.423Z,85.12
2023-02-11T02:40:27.453Z,85.10
2023-02-11T02:41:27.325Z,85.12
2023-02-11T02:42:27.331Z,85.11
2023-02-11T02:43:27.449Z,85.14
2023-02-11T02:44:27.450Z,85.16
2023-02-11T02:45:27.466Z,85.16
2023-02-11T02:46:27.399Z,85.21
2023-02-11T02:47:27.281Z,85.27
2023-02-11T02:48:27.420Z,85.40
2023-02-11T02:49:27.222Z,85.40
2023-02-11T02:50:27.215Z,85.45
2023-02-11T02:51:27.424Z,85.47
2023-02-11T02:52:27.401Z,85.48
2023-02-11T02:53:27.454Z,85.53
2023-02-11T02:54:27.215Z,85.53
2023-02-11T02:55:27.459Z,85.55
2023-02-11T02:56:27.521Z,85.53
2023-02-11T02:57:27.466Z,85.53
2023-02-11T02:58:27.496Z,85.59
2023-02-11T02:59:27.113Z,85.72
2023-02-11T03:00:27.149Z,85.73
2023-02-11T03:01:27.153Z,85.75
2023-02-11T03:02:27.196Z,85.79
2023-02-11T03:03:27.102Z,85.84
2023-02-11T03:04:27.090Z,85.85
2023-02-11T03:05:27.067Z,85.86
2023-02-11T03:06:27.037Z,85.85
2023-02-11T03:07:27.345Z,85.87
2023-02-11T03:08:27.379Z,85.87
2023-02-11T03:09:27.167Z,85.97
2023-02-11T03:10:27.039Z,86.02
2023-02-11T03:11:26.975Z,86.00
2023-02-11T03:12:26.999Z,86.02
2023-02-11T03:13:26.987Z,86.03
2023-02-11T03:14:26.966Z,86.04
2023-02-11T03:15:27.245Z,86.04
2023-02-11T03:16:27.240Z,86.04
2023-02-11T03:17:27.479Z,86.09
2023-02-11T03:18:27.474Z,86.11
2023-02-11T03:19:27.028Z,86.13
2023-02-11T03:20:27.474Z,86.18
2023-02-11T03:21:26.861Z,86.25
2023-02-11T03:22:27.470Z,86.39
2023-02-11T03:23:26.868Z,86.52
2023-02-11T03:24:26.885Z,86.54
2023-02-11T03:25:26.907Z,86.65
2023-02-11T03:26:26.839Z,86.75
2023-02-11T03:27:26.803Z,86.76
2023-02-11T03:28:26.818Z,86.79
2023-02-11T03:29:26.762Z,86.78
2023-02-11T03:30:26.818Z,86.77
2023-02-11T03:31:27.039Z,86.77
2023-02-11T03:32:27.102Z,86.73
2023-02-11T03:33:27.102Z,86.70
2023-02-11T03:34:26.734Z,86.73
2023-02-11T03:35:26.716Z,86.73
2023-02-11T03:36:26.729Z,86.73
2023-02-11T03:37:27.224Z,86.72
2023-02-11T03:38:26.702Z,86.71
2023-02-11T03:39:27.244Z,86.71
2023-02-11T03:40:26.715Z,86.73
2023-02-11T03:41:27.291Z,86.74
2023-02-11T03:42:26.649Z,86.74
2023-02-11T03:43:27.037Z,86.73
2023-02-11T03:44:26.904Z,86.79
2023-02-11T03:45:26.728Z,86.79
2023-02-11T03:46:26.623Z,86.94
2023-02-11T03:47:27.457Z,87.02
2023-02-11T03:48:26.579Z,87.10
2023-02-11T03:49:26.572Z,87.15
2023-02-11T03:50:26.650Z,87.13
2023-02-11T03:51:26.553Z,87.12
2023-02-11T03:52:26.509Z,87.15
2023-02-11T03:53:26.514Z,87.14
2023-02-11T03:54:26.512Z,87.24
2023-02-11T03:55:26.505Z,87.30
2023-02-11T03:56:26.499Z,87.38
2023-02-11T03:57:26.515Z,87.44
2023-02-11T03:58:26.444Z,87.43
2023-02-11T03:59:26.483Z,87.44
2023-02-11T04:00:26.429Z,87.47
2023-02-11T04:01:26.498Z,87.51
2023-02-11T04:02:26.501Z,87.53
2023-02-11T04:03:26.605Z,87.53
2023-02-11T04:04:26.507Z,87.54
2023-02-11T04:05:26.506Z,87.54
2023-02-11T04:06:26.507Z,87.54
2023-02-11T04:07:26.360Z,87.55
2023-02-11T04:08:26.503Z,87.54
2023-02-11T04:09:26.333Z,87.55
2023-02-11T04:10:26.561Z,87.54
2023-02-11T04:11:26.513Z,87.55
2023-02-11T04:12:26.528Z,87.54
2023-02-11T04:13:26.515Z,87.54
2023-02-11T04:14:26.396Z,87.53
2023-02-11T04:15:26.538Z,87.54
2023-02-11T04:16:26.315Z,87.54
2023-02-11T04:17:26.251Z,87.54
2023-02-11T04:18:26.227Z,87.53
2023-02-11T04:19:26.284Z,87.47
2023-02-11T04:20:26.299Z,87.47
2023-02-11T04:21:26.400Z,87.48
2023-02-11T04:22:26.350Z,87.46
2023-02-11T04:23:26.382Z,87.48
2023-02-11T04:24:26.398Z,87.54
2023-02-11T04:25:26.437Z,87.60
2023-02-11T04:26:26.452Z,87.69
2023-02-11T04:27:26.503Z,87.76
2023-02-11T04:28:26.532Z,87.81
2023-02-11T04:29:26.165Z,87.94
2023-02-11T04:30:26.294Z,88.02
2023-02-11T04:31:26.643Z,88.08
2023-02-11T04:32:26.522Z,88.12
2023-02-11T04:33:26.525Z,88.23
2023-02-11T04:34:26.522Z,88.32
2023-02-11T04:35:26.076Z,88.30
2023-02-11T04:36:26.048Z,88.30
2023-02-11T04:37:26.079Z,88.40
2023-02-11T04:38:26.101Z,88.41
2023-02-11T04:39:26.136Z,88.40
2023-02-11T04:40:26.163Z,88.42
2023-02-11T04:41:26.200Z,88.43
2023-02-11T04:42:26.225Z,88.48
2023-02-11T04:43:26.254Z,88.47
2023-02-11T04:44:26.294Z,88.46
2023-02-11T04:45:26.331Z,88.46
2023-02-11T04:46:26.434Z,88.47
2023-02-11T04:47:26.372Z,88.50
2023-02-11T04:48:26.394Z,88.49
2023-02-11T04:49:25.865Z,88.48
2023-02-11T04:50:25.878Z,88.48
2023-02-11T04:51:26.149Z,88.46
2023-02-11T04:52:25.880Z,88.45
2023-02-11T04:53:26.553Z,88.43
2023-02-11T04:54:25.986Z,88.43
2023-02-11T04:55:26.550Z,88.44
2023-02-11T04:56:25.799Z,88.44
2023-02-11T04:57:26.545Z,88.42
2023-02-11T04:58:26.553Z,88.41
2023-02-11T04:59:26.561Z,88.40
2023-02-11T05:00:26.560Z,88.39
2023-02-11T05:01:26.628Z,88.38
2023-02-11T05:02:25.724Z,88.37
2023-02-11T05:03:25.707Z,88.37
2023-02-11T05:04:25.723Z,88.34
2023-02-11T05:05:25.713Z,88.35
2023-02-11T05:06:26.523Z,88.34
2023-02-11T05:07:26.552Z,88.34
2023-02-11T05:08:26.552Z,88.36
2023-02-11T05:09:26.559Z,88.41
2023-02-11T05:10:25.614Z,88.39
2023-02-11T05:11:25.658Z,88.37
2023-02-11T05:12:25.596Z,88.37
2023-02-11T05:13:25.594Z,88.40
2023-02-11T05:14:25.617Z,88.39
2023-02-11T05:15:25.622Z,88.38
2023-02-11T05:16:25.664Z,88.39
2023-02-11T05:17:25.577Z,88.41
2023-02-11T05:18:25.558Z,88.42
2023-02-11T05:19:25.564Z,88.40
2023-02-11T05:20:25.570Z,88.39
2023-02-11T05:21:25.524Z,88.38
2023-02-11T05:22:25.531Z,88.37
2023-02-11T05:23:25.568Z,88.36
2023-02-11T05:24:25.577Z,88.37
2023-02-11T05:25:25.585Z,88.36
2023-02-11T05:26:25.444Z,88.32
2023-02-11T05:27:25.573Z,88.31
2023-02-11T05:28:25.620Z,88.32
2023-02-11T05:29:25.432Z,88.32
2023-02-11T05:30:25.568Z,88.34
2023-02-11T05:31:25.573Z,88.37
2023-02-11T05:32:25.422Z,88.36
2023-02-11T05:33:25.575Z,88.36
2023-02-11T05:34:25.362Z,88.36
2023-02-11T05:35:25.573Z,88.40
2023-02-11T05:36:25.587Z,88.41
2023-02-11T05:37:25.405Z,88.46
2023-02-11T05:38:25.574Z,88.48
2023-02-11T05:39:25.590Z,88.49
2023-02-11T05:40:25.578Z,88.54
2023-02-11T05:41:25.596Z,88.56
2023-02-11T05:42:25.299Z,88.57
2023-02-11T05:43:25.577Z,88.61
2023-02-11T05:44:25.247Z,88.63
2023-02-11T05:45:25.247Z,88.68
2023-02-11T05:46:25.609Z,88.75
2023-02-11T05:47:25.583Z,88.77
2023-02-11T05:48:25.576Z,88.87
2023-02-11T05:49:25.603Z,88.95
2023-02-11T05:50:25.183Z,89.01
2023-02-11T05:51:25.228Z,89.06
2023-02-11T05:52:25.150Z,89.03
2023-02-11T05:53:25.149Z,88.98
2023-02-11T05:54:25.133Z,89.02
2023-02-11T05:55:25.585Z,89.07
2023-02-11T05:56:25.600Z,89.14
2023-02-11T05:57:25.590Z,89.24
2023-02-11T05:58:25.136Z,89.26
2023-02-11T05:59:25.105Z,89.24
2023-02-11T06:00:25.594Z,89.24
2023-02-11T06:01:25.590Z,89.25
2023-02-11T06:02:25.635Z,89.35
2023-02-11T06:03:25.067Z,89.40
2023-02-11T06:04:25.055Z,89.46
2023-02-11T06:05:25.025Z,89.52
2023-02-11T06:06:24.983Z,89.53
2023-02-11T06:07:25.006Z,89.53
2023-02-11T06:08:24.963Z,89.54
2023-02-11T06:09:24.979Z,89.57
2023-02-11T06:10:24.962Z,89.61
2023-02-11T06:11:25.189Z,89.59
2023-02-11T06:12:25.182Z,89.60
2023-02-11T06:13:25.208Z,89.60
2023-02-11T06:14:24.924Z,89.59
2023-02-11T06:15:24.912Z,89.58
2023-02-11T06:16:24.993Z,89.57
2023-02-11T06:17:24.896Z,89.58
2023-02-11T06:18:24.857Z,89.60
2023-02-11T06:19:25.351Z,89.59
2023-02-11T06:20:25.381Z,89.56
2023-02-11T06:21:33.498Z,89.57
2023-02-11T06:22:26.616Z,89.57
2023-02-11T06:23:25.311Z,89.57
2023-02-11T06:24:50.963Z,89.54
2023-02-11T06:25:25.784Z,89.53
2023-02-11T06:26:25.562Z,89.52
2023-02-11T06:27:25.259Z,89.52
2023-02-11T06:28:25.394Z,89.52
2023-02-11T06:29:25.611Z,89.50
2023-02-11T06:30:24.731Z,89.51
2023-02-11T06:31:25.648Z,89.52
2023-02-11T06:32:42.876Z,89.52
2023-02-11T06:33:25.723Z,89.50
2023-02-11T06:34:24.680Z,89.50
2023-02-11T06:35:25.622Z,89.49
2023-02-11T06:36:24.643Z,89.47
2023-02-11T06:37:24.684Z,89.44
2023-02-11T06:38:24.657Z,89.44
2023-02-11T06:39:24.653Z,89.45
2023-02-11T06:40:24.595Z,89.45
2023-02-11T06:41:24.603Z,89.45
2023-02-11T06:42:24.577Z,89.45
2023-02-11T06:43:24.625Z,89.44
2023-02-11T06:44:24.612Z,89.45
2023-02-11T06:45:24.570Z,89.45
2023-02-11T06:46:24.575Z,89.46
2023-02-11T06:47:24.526Z,89.43
2023-02-11T06:48:24.528Z,89.43
2023-02-11T06:49:24.533Z,89.44
2023-02-11T06:50:24.482Z,89.42
2023-02-11T06:51:24.631Z,89.39
2023-02-11T06:52:24.499Z,89.39
2023-02-11T06:53:24.474Z,89.37
2023-02-11T06:54:24.467Z,89.34
2023-02-11T06:55:24.452Z,89.31
2023-02-11T06:56:24.627Z,89.31
2023-02-11T06:57:24.415Z,89.31
2023-02-11T06:58:24.398Z,89.32
2023-02-11T06:59:24.390Z,89.31
2023-02-11T07:00:24.397Z,89.29
2023-02-11T07:01:24.499Z,89.23
2023-02-11T07:02:24.340Z,89.22
2023-02-11T07:03:24.358Z,89.16
2023-02-11T07:04:24.333Z,89.13
2023-02-11T07:05:24.334Z,89.09
2023-02-11T07:06:24.321Z,89.03
2023-02-11T07:07:24.598Z,88.96
2023-02-11T07:08:24.612Z,88.92
2023-02-11T07:09:24.288Z,88.88
2023-02-11T07:10:24.250Z,88.86
2023-02-11T07:11:24.334Z,88.86
2023-02-11T07:12:24.237Z,88.87
2023-02-11T07:13:24.236Z,88.86
2023-02-11T07:14:24.225Z,88.89
2023-02-11T07:15:24.423Z,88.85
2023-02-11T07:16:24.314Z,88.85
2023-02-11T07:17:24.192Z,88.85
2023-02-11T07:18:24.166Z,88.83
2023-02-11T07:19:24.409Z,88.81
2023-02-11T07:20:24.150Z,88.79
2023-02-11T07:21:24.184Z,88.78
2023-02-11T07:22:24.146Z,88.72
2023-02-11T07:23:24.200Z,88.72
2023-02-11T07:24:24.142Z,88.67
2023-02-11T07:25:24.100Z,88.61
2023-02-11T07:26:24.124Z,88.55
2023-02-11T07:27:24.104Z,88.57
2023-02-11T07:28:24.125Z,88.61
2023-02-11T07:29:24.054Z,88.60
2023-02-11T07:30:24.026Z,88.59
2023-02-11T07:31:24.186Z,88.63
2023-02-11T07:32:24.149Z,88.61
2023-02-11T07:33:24.025Z,88.59
2023-02-11T07:34:24.060Z,88.56
2023-02-11T07:35:24.014Z,88.55
2023-02-11T07:36:23.953Z,88.53
2023-02-11T07:37:23.971Z,88.46
2023-02-11T07:38:23.958Z,88.35
2023-02-11T07:39:24.389Z,88.30
2023-02-11T07:40:23.943Z,88.34
2023-02-11T07:41:23.946Z,88.27
2023-02-11T07:42:23.889Z,88.27
2023-02-11T07:43:23.896Z,88.28
2023-02-11T07:44:23.892Z,88.29
2023-02-11T07:45:23.873Z,88.28
2023-02-11T07:46:23.916Z,88.20
2023-02-11T07:47:24.670Z,88.06
2023-02-11T07:48:24.362Z,87.83
2023-02-11T07:49:23.822Z,87.79
2023-02-11T07:50:23.958Z,87.76
2023-02-11T07:51:24.687Z,87.66
2023-02-11T07:52:23.786Z,87.67
2023-02-11T07:53:23.789Z,87.52
2023-02-11T07:54:23.767Z,87.41
2023-02-11T07:55:23.839Z,87.25
2023-02-11T07:56:23.852Z,87.17
2023-02-11T07:57:23.871Z,87.07
2023-02-11T07:58:23.712Z,87.00
2023-02-11T07:59:23.709Z,86.76
2023-02-11T08:00:23.713Z,86.62
2023-02-11T08:01:23.752Z,86.62
2023-02-11T08:02:23.742Z,86.62
2023-02-11T08:03:23.679Z,86.60
2023-02-11T08:04:23.713Z,86.51
2023-02-11T08:05:23.632Z,86.49
2023-02-11T08:06:23.655Z,86.35
2023-02-11T08:07:23.621Z,86.20
2023-02-11T08:08:23.623Z,86.03
2023-02-11T08:09:23.596Z,85.96
2023-02-11T08:10:23.624Z,85.91
2023-02-11T08:11:23.585Z,85.87
2023-02-11T08:12:23.567Z,85.78
2023-02-11T08:13:23.555Z,85.74
2023-02-11T08:14:23.552Z,85.70
2023-02-11T08:15:23.533Z,85.65
2023-02-11T08:16:23.625Z,85.60
2023-02-11T08:17:23.502Z,85.60
2023-02-11T08:18:23.496Z,85.66
2023-02-11T08:19:23.485Z,85.74
2023-02-11T08:20:23.688Z,85.83
2023-02-11T08:21:23.464Z,85.88
2023-02-11T08:22:23.477Z,85.83
2023-02-11T08:23:23.458Z,85.77
2023-02-11T08:24:23.429Z,85.82
2023-02-11T08:25:23.420Z,85.88
2023-02-11T08:26:23.435Z,85.88
2023-02-11T08:27:23.380Z,85.81
2023-02-11T08:28:23.733Z,85.79
2023-02-11T08:29:23.368Z,85.76
2023-02-11T08:30:25.662Z,85.65
2023-02-11T08:31:23.448Z,85.65
2023-02-11T08:32:23.427Z,85.66
2023-02-11T08:33:23.318Z,85.60
2023-02-11T08:34:23.320Z,85.58
2023-02-11T08:35:23.696Z,85.60
2023-02-11T08:36:23.707Z,85.61
2023-02-11T08:37:23.272Z,85.63
2023-02-11T08:38:23.266Z,85.62
2023-02-11T08:39:23.341Z,85.62
2023-02-11T08:40:23.244Z,85.67
2023-02-11T08:41:23.226Z,85.68
2023-02-11T08:42:23.230Z,85.69
2023-02-11T08:43:23.697Z,85.70
2023-02-11T08:44:23.710Z,85.75
2023-02-11T08:45:23.723Z,85.75
2023-02-11T08:46:23.232Z,85.77
2023-02-11T08:47:23.160Z,85.78
2023-02-11T08:48:23.158Z,85.75
2023-02-11T08:49:23.144Z,85.70
2023-02-11T08:50:23.138Z,85.66
2023-02-11T08:51:23.241Z,85.65
2023-02-11T08:52:23.247Z,85.59
2023-02-11T08:53:23.096Z,85.56
2023-02-11T08:54:23.110Z,85.55
2023-02-11T08:55:23.070Z,85.57
2023-02-11T08:56:23.122Z,85.56
2023-02-11T08:57:23.032Z,85.59
2023-02-11T08:58:23.063Z,85.63
2023-02-11T08:59:23.058Z,85.65
2023-02-11T09:00:23.161Z,85.68
2023-02-11T09:01:23.280Z,85.76
2023-02-11T09:02:23.069Z,85.80
2023-02-11T09:03:22.980Z,85.81
2023-02-11T09:04:22.982Z,85.80
2023-02-11T09:05:22.981Z,85.78
2023-02-11T09:06:22.994Z,85.67
2023-02-11T09:07:22.933Z,85.55
2023-02-11T09:08:23.310Z,85.55
2023-02-11T09:09:22.916Z,85.50
2023-02-11T09:10:22.966Z,85.48
2023-02-11T09:11:23.657Z,85.51
2023-02-11T09:12:23.338Z,85.54
2023-02-11T09:13:22.862Z,85.56
2023-02-11T09:14:22.867Z,85.56
2023-02-11T09:15:22.854Z,85.61
2023-02-11T09:16:22.971Z,85.58
2023-02-11T09:17:22.830Z,85.61
2023-02-11T09:18:22.828Z,85.56
2023-02-11T09:19:23.718Z,85.54
2023-02-11T09:20:23.619Z,85.55
2023-02-11T09:21:22.790Z,85.53
2023-02-11T09:22:22.784Z,85.54
2023-02-11T09:23:22.747Z,85.54
2023-02-11T09:24:22.746Z,85.40
2023-02-11T09:25:22.742Z,85.22
2023-02-11T09:26:22.750Z,85.14
2023-02-11T09:27:22.726Z,85.11
2023-02-11T09:28:22.768Z,85.06
2023-02-11T09:29:22.681Z,85.05
2023-02-11T09:30:22.722Z,84.84
2023-02-11T09:31:22.812Z,84.72
2023-02-11T09:32:22.653Z,84.60
2023-02-11T09:33:22.642Z,84.56
2023-02-11T09:34:22.654Z,84.53
2023-02-11T09:35:22.618Z,84.59
2023-02-11T09:36:22.636Z,84.61
2023-02-11T09:37:22.603Z,84.52
2023-02-11T09:38:22.606Z,84.47
2023-02-11T09:39:22.565Z,84.43
2023-02-11T09:40:22.602Z,84.46
2023-02-11T09:41:22.590Z,84.42
2023-02-11T09:42:22.550Z,84.35
2023-02-11T09:43:22.527Z,84.33
2023-02-11T09:44:22.526Z,84.24
2023-02-11T09:45:22.510Z,84.19
2023-02-11T09:46:22.561Z,84.08
2023-02-11T09:47:22.477Z,84.05
2023-02-11T09:48:22.510Z,84.08
2023-02-11T09:49:22.450Z,84.14
2023-02-11T09:50:22.456Z,84.09
2023-02-11T09:51:22.446Z,84.03
2023-02-11T09:52:22.448Z,83.94
2023-02-11T09:53:22.413Z,83.91
2023-02-11T09:54:22.431Z,83.91
2023-02-11T09:55:22.387Z,83.94
2023-02-11T09:56:22.380Z,83.92
2023-02-11T09:57:28.584Z,83.92
2023-02-11T09:58:23.364Z,83.94
2023-02-11T09:59:22.340Z,83.91
2023-02-11T10:00:22.405Z,83.86
2023-02-11T10:01:22.334Z,83.86
2023-02-11T10:02:22.341Z,83.84
2023-02-11T10:03:22.290Z,83.83
2023-02-11T10:04:22.355Z,83.78
2023-02-11T10:05:22.262Z,83.81
2023-02-11T10:06:22.288Z,83.81
2023-02-11T10:07:22.268Z,83.83
2023-02-11T10:08:22.302Z,83.87
2023-02-11T10:09:22.211Z,83.84
2023-02-11T10:10:22.220Z,83.96
2023-02-11T10:11:31.320Z,83.98
2023-02-11T10:12:23.227Z,84.05
2023-02-11T10:13:22.191Z,84.23
2023-02-11T10:14:22.195Z,84.30
2023-02-11T10:15:22.778Z,84.37
2023-02-11T10:16:22.168Z,84.36
2023-02-11T10:17:22.150Z,84.33
2023-02-11T10:18:22.153Z,84.29
2023-02-11T10:19:22.119Z,84.26
2023-02-11T10:20:22.157Z,84.23
2023-02-11T10:21:22.084Z,84.23
2023-02-11T10:22:22.098Z,84.29
2023-02-11T10:23:22.072Z,84.30
2023-02-11T10:24:22.090Z,84.22
2023-02-11T10:25:22.067Z,84.13
2023-02-11T10:26:22.044Z,83.99
2023-02-11T10:27:22.033Z,83.88
2023-02-11T10:28:22.059Z,83.95
2023-02-11T10:29:22.016Z,83.98
2023-02-11T10:30:22.037Z,84.01
2023-02-11T10:31:22.718Z,84.06
2023-02-11T10:32:21.981Z,84.05
2023-02-11T10:33:22.698Z,84.09
2023-02-11T10:34:21.959Z,84.04
2023-02-11T10:35:22.768Z,83.97
2023-02-11T10:36:21.924Z,83.96
2023-02-11T10:37:21.902Z,83.92
2023-02-11T10:38:21.985Z,83.85
2023-02-11T10:39:21.944Z,83.83
2023-02-11T10:40:21.925Z,83.76
2023-02-11T10:41:21.849Z,83.75
2023-02-11T10:42:21.882Z,83.72
2023-02-11T10:43:21.825Z,83.67
2023-02-11T10:44:21.844Z,83.69
2023-02-11T10:45:21.826Z,83.65
2023-02-11T10:46:21.834Z,83.63
2023-02-11T10:47:21.807Z,83.45
2023-02-11T10:48:21.782Z,83.41
2023-02-11T10:49:21.767Z,83.46
2023-02-11T10:50:21.849Z,83.60
2023-02-11T10:51:21.730Z,83.55
2023-02-11T10:52:21.754Z,83.60
2023-02-11T10:53:21.714Z,83.74
2023-02-11T10:54:21.723Z,83.79
2023-02-11T10:55:21.813Z,83.72
2023-02-11T10:56:21.712Z,83.73
2023-02-11T10:57:21.663Z,83.61
2023-02-11T10:58:21.809Z,83.62
2023-02-11T10:59:21.808Z,83.48
2023-02-11T11:00:21.667Z,83.37
2023-02-11T11:01:24.633Z,83.44
2023-02-11T11:02:21.625Z,83.48
2023-02-11T11:03:21.602Z,83.61
2023-02-11T11:04:21.638Z,83.58
2023-02-11T11:05:21.586Z,83.50
2023-02-11T11:06:21.829Z,83.48
2023-02-11T11:07:21.570Z,83.37
2023-02-11T11:08:21.568Z,83.29
2023-02-11T11:09:21.572Z,83.32
2023-02-11T11:10:21.858Z,83.27
2023-02-11T11:11:21.818Z,83.36
2023-02-11T11:12:21.510Z,83.38
2023-02-11T11:13:21.823Z,83.44
2023-02-11T11:14:21.821Z,83.52
2023-02-11T11:15:21.467Z,83.50
2023-02-11T11:16:21.636Z,83.43
2023-02-11T11:17:21.455Z,83.44
2023-02-11T11:18:23.317Z,83.46
2023-02-11T11:19:21.823Z,83.48
2023-02-11T11:20:21.436Z,83.57
2023-02-11T11:21:21.392Z,83.53
2023-02-11T11:22:21.464Z,83.50
2023-02-11T11:23:21.823Z,83.54
2023-02-11T11:24:21.384Z,83.56
2023-02-11T11:25:21.824Z,83.55
2023-02-11T11:26:21.389Z,83.61
2023-02-11T11:27:21.826Z,83.73
2023-02-11T11:28:21.401Z,83.65
2023-02-11T11:29:21.331Z,83.60
2023-02-11T11:30:21.315Z,83.56
2023-02-11T11:31:21.377Z,83.61
2023-02-11T11:32:21.309Z,83.64
2023-02-11T11:33:21.276Z,83.65
2023-02-11T11:34:21.276Z,83.64
2023-02-11T11:35:21.252Z,83.48
2023-02-11T11:36:21.267Z,83.41
2023-02-11T11:37:21.227Z,83.35
2023-02-11T11:38:21.513Z,83.34
2023-02-11T11:39:21.196Z,83.34
2023-02-11T11:40:21.208Z,83.35
2023-02-11T11:41:21.166Z,83.17
2023-02-11T11:42:21.192Z,83.13
2023-02-11T11:43:23.197Z,83.12
2023-02-11T11:44:21.158Z,83.09
2023-02-11T11:45:21.129Z,83.29
2023-02-11T11:46:21.424Z,83.19
2023-02-11T11:47:21.098Z,83.01
2023-02-11T11:48:21.124Z,82.92
2023-02-11T11:49:21.078Z,82.98
2023-02-11T11:50:21.360Z,82.99
2023-02-11T11:51:21.056Z,83.00
2023-02-11T11:52:21.052Z,83.03
2023-02-11T11:53:21.053Z,83.01
2023-02-11T11:54:21.045Z,82.89
2023-02-11T11:55:21.014Z,82.70
2023-02-11T11:56:21.021Z,82.54
2023-02-11T11:57:21.001Z,82.48
2023-02-11T11:58:21.026Z,82.45
2023-02-11T11:59:20.958Z,82.23
2023-02-11T12:00:20.967Z,82.17
2023-02-11T12:01:20.938Z,82.12
2023-02-11T12:02:21.047Z,82.04
2023-02-11T12:03:21.051Z,81.71
2023-02-11T12:04:20.931Z,81.73
2023-02-11T12:05:20.897Z,81.71
2023-02-11T12:06:20.912Z,81.67
2023-02-11T12:07:21.329Z,81.64
2023-02-11T12:08:20.891Z,81.52
2023-02-11T12:09:20.879Z,81.48
2023-02-11T12:10:20.858Z,81.48
2023-02-11T12:11:20.862Z,81.44
2023-02-11T12:12:20.852Z,81.29
2023-02-11T12:13:20.801Z,81.22
2023-02-11T12:14:20.852Z,81.20
2023-02-11T12:15:20.782Z,81.16
2023-02-11T12:16:20.864Z,81.23
2023-02-11T12:17:20.758Z,81.30
2023-02-11T12:18:20.852Z,81.35
2023-02-11T12:19:20.858Z,81.36
2023-02-11T12:20:20.854Z,81.34
2023-02-11T12:21:20.740Z,81.36
2023-02-11T12:22:20.701Z,81.37
2023-02-11T12:23:20.703Z,81.44
2023-02-11T12:24:20.684Z,81.47
2023-02-11T12:25:20.705Z,81.53
2023-02-11T12:26:20.649Z,81.48
2023-02-11T12:27:20.673Z,81.52
2023-02-11T12:28:20.682Z,81.55
2023-02-11T12:29:20.646Z,81.56
2023-02-11T12:30:20.626Z,81.52
2023-02-11T12:31:20.784Z,81.52
2023-02-11T12:32:20.597Z,81.41
2023-02-11T12:33:20.577Z,81.23
2023-02-11T12:34:20.608Z,81.31
2023-02-11T12:35:20.576Z,81.38
2023-02-11T12:36:20.546Z,81.39
2023-02-11T12:37:20.550Z,81.43
2023-02-11T12:38:20.546Z,81.49
2023-02-11T12:39:20.529Z,81.62
2023-02-11T12:40:21.092Z,81.70
2023-02-11T12:41:20.498Z,81.68
2023-02-11T12:42:20.472Z,81.76
2023-02-11T12:43:20.483Z,81.65
2023-02-11T12:44:20.464Z,81.56
2023-02-11T12:45:20.441Z,81.64
2023-02-11T12:46:20.507Z,81.63
2023-02-11T12:47:20.462Z,81.62
2023-02-11T12:48:20.428Z,81.62
2023-02-11T12:49:20.401Z,81.70
2023-02-11T12:50:20.376Z,81.76
2023-02-11T12:51:20.406Z,81.65
2023-02-11T12:52:20.351Z,81.58